Mhead, Massachusetts
Current Conditions -  °F | °C
As of 5:53 PM on Thursday 27 Nov 2014 (Local Time) from KBVY Reporting Station
Overcast Overcast  
Wind Chill: 27°   Ceiling: 1900
Heat Index: 33°   Visibility: 10mi
Dew Point: 28°   Wind: 7mph
Humidity: 82%   Direction: 330°NNW
Pressure: 29.98"   Gusts: NA
Location:  42.4989°N, 70.8636°W
Report Text: KBVY 272253Z 33006KT 10SM OVC019 01/M02 A2998 RMK AO2 SLP148 T00061022
Loading
Personal Weather Stations






























Interactive Weather Map New forecast layout! Learn more

10-Day Weather Forecast

Advertisements
Track Severe Weather on mobile